sensor_id;sensor_type;location;lat;lon;timestamp;temperature;humidity
7970;DHT22;4030;52.362;9.206;2023-03-01T00:12:05;5.60;50.20
7970;DHT22;4030;52.362;9.206;2023-03-01T00:14:32;5.50;50.20
7970;DHT22;4030;52.362;9.206;2023-03-01T00:16:57;5.50;50.20
7970;DHT22;4030;52.362;9.206;2023-03-01T00:19:23;5.50;50.30
7970;DHT22;4030;52.362;9.206;2023-03-01T00:24:15;5.60;50.40
7970;DHT22;4030;52.362;9.206;2023-03-01T00:26:42;5.60;50.50
7970;DHT22;4030;52.362;9.206;2023-03-01T00:29:07;5.50;50.50
7970;DHT22;4030;52.362;9.206;2023-03-01T00:34:02;5.40;50.30
7970;DHT22;4030;52.362;9.206;2023-03-01T00:36:34;5.40;50.50
7970;DHT22;4030;52.362;9.206;2023-03-01T00:39:02;5.30;50.40
7970;DHT22;4030;52.362;9.206;2023-03-01T00:46:24;5.20;50.30
7970;DHT22;4030;52.362;9.206;2023-03-01T00:48:50;5.40;50.60
7970;DHT22;4030;52.362;9.206;2023-03-01T00:51:22;5.30;50.50
7970;DHT22;4030;52.362;9.206;2023-03-01T00:53:51;5.20;50.40
7970;DHT22;4030;52.362;9.206;2023-03-01T00:58:48;5.40;50.70
7970;DHT22;4030;52.362;9.206;2023-03-01T01:01:23;5.10;50.40
7970;DHT22;4030;52.362;9.206;2023-03-01T01:03:58;5.10;50.40
7970;DHT22;4030;52.362;9.206;2023-03-01T01:06:34;5.00;50.50
7970;DHT22;4030;52.362;9.206;2023-03-01T01:09:03;5.10;50.60
7970;DHT22;4030;52.362;9.206;2023-03-01T01:11:31;4.90;50.40
7970;DHT22;4030;52.362;9.206;2023-03-01T01:13:57;4.90;50.50
7970;DHT22;4030;52.362;9.206;2023-03-01T01:16:25;5.20;50.70
7970;DHT22;4030;52.362;9.206;2023-03-01T01:18:52;4.80;50.50
7970;DHT22;4030;52.362;9.206;2023-03-01T01:21:22;5.20;50.90
7970;DHT22;4030;52.362;9.206;2023-03-01T01:23:49;4.80;50.50
7970;DHT22;4030;52.362;9.206;2023-03-01T01:26:21;4.80;50.60
7970;DHT22;4030;52.362;9.206;2023-03-01T01:28:48;5.10;50.90
7970;DHT22;4030;52.362;9.206;2023-03-01T01:31:15;4.80;50.60
7970;DHT22;4030;52.362;9.206;2023-03-01T01:36:08;4.70;50.70
7970;DHT22;4030;52.362;9.206;2023-03-01T01:38:35;5.10;51.00
7970;DHT22;4030;52.362;9.206;2023-03-01T01:41:01;4.70;50.70
7970;DHT22;4030;52.362;9.206;2023-03-01T01:43:35;4.60;50.70
7970;DHT22;4030;52.362;9.206;2023-03-01T01:46:30;4.70;50.70
7970;DHT22;4030;52.362;9.206;2023-03-01T01:51:37;4.70;50.90
7970;DHT22;4030;52.362;9.206;2023-03-01T01:54:26;4.80;51.00
7970;DHT22;4030;52.362;9.206;2023-03-01T01:57:03;4.70;50.90
7970;DHT22;4030;52.362;9.206;2023-03-01T01:59:32;4.50;50.80
7970;DHT22;4030;52.362;9.206;2023-03-01T02:02:00;4.70;51.00
7970;DHT22;4030;52.362;9.206;2023-03-01T02:04:28;4.50;50.70
7970;DHT22;4030;52.362;9.206;2023-03-01T02:07:07;4.50;50.80
7970;DHT22;4030;52.362;9.206;2023-03-01T02:12:04;4.20;50.50
7970;DHT22;4030;52.362;9.206;2023-03-01T02:19:53;4.40;50.90
7970;DHT22;4030;52.362;9.206;2023-03-01T02:22:34;4.40;50.90
7970;DHT22;4030;52.362;9.206;2023-03-01T02:30:26;4.50;51.10
7970;DHT22;4030;52.362;9.206;2023-03-01T02:32:54;4.50;51.10
7970;DHT22;4030;52.362;9.206;2023-03-01T02:35:30;4.00;50.90
7970;DHT22;4030;52.362;9.206;2023-03-01T02:37:58;4.10;51.00
7970;DHT22;4030;52.362;9.206;2023-03-01T02:40:28;4.10;51.00
7970;DHT22;4030;52.362;9.206;2023-03-01T02:42:58;4.30;51.20
7970;DHT22;4030;52.362;9.206;2023-03-01T02:45:25;4.20;51.20
7970;DHT22;4030;52.362;9.206;2023-03-01T02:47:55;4.10;51.30
7970;DHT22;4030;52.362;9.206;2023-03-01T02:53:00;4.10;51.40
7970;DHT22;4030;52.362;9.206;2023-03-01T02:55:30;4.00;51.30
7970;DHT22;4030;52.362;9.206;2023-03-01T02:57:56;4.10;51.50
7970;DHT22;4030;52.362;9.206;2023-03-01T03:00:33;4.40;51.80
7970;DHT22;4030;52.362;9.206;2023-03-01T03:03:05;4.10;51.40
7970;DHT22;4030;52.362;9.206;2023-03-01T03:05:32;4.00;51.60
7970;DHT22;4030;52.362;9.206;2023-03-01T03:08:00;4.10;51.50
7970;DHT22;4030;52.362;9.206;2023-03-01T03:10:29;4.10;51.50
7970;DHT22;4030;52.362;9.206;2023-03-01T03:12:59;4.20;51.80
7970;DHT22;4030;52.362;9.206;2023-03-01T03:17:55;4.00;51.70
7970;DHT22;4030;52.362;9.206;2023-03-01T03:20:25;4.10;51.80
7970;DHT22;4030;52.362;9.206;2023-03-01T03:22:53;3.80;51.50
7970;DHT22;4030;52.362;9.206;2023-03-01T03:27:48;4.00;51.70
7970;DHT22;4030;52.362;9.206;2023-03-01T03:30:18;3.70;51.50
7970;DHT22;4030;52.362;9.206;2023-03-01T03:32:46;4.10;51.70
7970;DHT22;4030;52.362;9.206;2023-03-01T03:35:19;3.80;51.70
7970;DHT22;4030;52.362;9.206;2023-03-01T03:40:30;4.00;51.90
7970;DHT22;4030;52.362;9.206;2023-03-01T03:42:57;3.90;51.80
7970;DHT22;4030;52.362;9.206;2023-03-01T03:45:23;4.00;51.80
7970;DHT22;4030;52.362;9.206;2023-03-01T03:47:49;3.80;51.70
7970;DHT22;4030;52.362;9.206;2023-03-01T03:50:16;3.70;51.60
7970;DHT22;4030;52.362;9.206;2023-03-01T03:55:10;3.70;51.60
7970;DHT22;4030;52.362;9.206;2023-03-01T03:57:38;3.70;51.70
7970;DHT22;4030;52.362;9.206;2023-03-01T04:00:10;3.60;51.80
7970;DHT22;4030;52.362;9.206;2023-03-01T04:02:42;3.50;51.90
7970;DHT22;4030;52.362;9.206;2023-03-01T04:05:10;3.70;52.20
7970;DHT22;4030;52.362;9.206;2023-03-01T04:07:37;3.60;51.80
7970;DHT22;4030;52.362;9.206;2023-03-01T04:10:05;3.60;52.00
7970;DHT22;4030;52.362;9.206;2023-03-01T04:12:33;3.60;52.10
7970;DHT22;4030;52.362;9.206;2023-03-01T04:15:06;3.40;52.00
7970;DHT22;4030;52.362;9.206;2023-03-01T04:17:46;3.90;52.30
7970;DHT22;4030;52.362;9.206;2023-03-01T04:20:17;3.60;51.80
7970;DHT22;4030;52.362;9.206;2023-03-01T04:22:58;3.90;52.30
7970;DHT22;4030;52.362;9.206;2023-03-01T04:25:37;3.60;52.00
7970;DHT22;4030;52.362;9.206;2023-03-01T04:28:05;3.70;52.30
7970;DHT22;4030;52.362;9.206;2023-03-01T04:30:31;3.60;52.00
7970;DHT22;4030;52.362;9.206;2023-03-01T04:35:29;3.50;52.20
7970;DHT22;4030;52.362;9.206;2023-03-01T04:37:55;3.70;52.30
7970;DHT22;4030;52.362;9.206;2023-03-01T04:40:20;3.40;52.10
7970;DHT22;4030;52.362;9.206;2023-03-01T04:42:46;3.30;52.10
7970;DHT22;4030;52.362;9.206;2023-03-01T04:45:12;3.40;52.10
7970;DHT22;4030;52.362;9.206;2023-03-01T04:47:39;3.30;51.70
7970;DHT22;4030;52.362;9.206;2023-03-01T04:50:11;3.40;52.20
7970;DHT22;4030;52.362;9.206;2023-03-01T04:52:39;3.30;52.10
7970;DHT22;4030;52.362;9.206;2023-03-01T04:55:05;3.60;52.40
7970;DHT22;4030;52.362;9.206;2023-03-01T04:57:32;3.30;51.90
7970;DHT22;4030;52.362;9.206;2023-03-01T05:07:17;3.20;52.10
7970;DHT22;4030;52.362;9.206;2023-03-01T05:09:46;3.20;52.20
7970;DHT22;4030;52.362;9.206;2023-03-01T05:12:12;3.20;52.20
7970;DHT22;4030;52.362;9.206;2023-03-01T05:17:05;3.10;52.00
7970;DHT22;4030;52.362;9.206;2023-03-01T05:19:31;3.20;52.30
7970;DHT22;4030;52.362;9.206;2023-03-01T05:21:58;3.50;52.60
7970;DHT22;4030;52.362;9.206;2023-03-01T05:24:28;3.10;51.90
7970;DHT22;4030;52.362;9.206;2023-03-01T05:26:54;3.00;52.20
7970;DHT22;4030;52.362;9.206;2023-03-01T05:29:21;2.90;52.10
7970;DHT22;4030;52.362;9.206;2023-03-01T05:31:52;2.80;52.00
7970;DHT22;4030;52.362;9.206;2023-03-01T05:34:23;3.10;51.90
7970;DHT22;4030;52.362;9.206;2023-03-01T05:39:19;3.30;52.30
7970;DHT22;4030;52.362;9.206;2023-03-01T05:41:51;3.30;52.20
7970;DHT22;4030;52.362;9.206;2023-03-01T05:44:18;3.00;52.10
7970;DHT22;4030;52.362;9.206;2023-03-01T05:49:10;3.20;52.30
7970;DHT22;4030;52.362;9.206;2023-03-01T05:51:38;2.90;52.10
7970;DHT22;4030;52.362;9.206;2023-03-01T05:54:05;2.90;52.10
7970;DHT22;4030;52.362;9.206;2023-03-01T05:56:33;2.80;51.90
7970;DHT22;4030;52.362;9.206;2023-03-01T05:59:00;2.80;52.00
7970;DHT22;4030;52.362;9.206;2023-03-01T06:01:26;3.10;52.20
7970;DHT22;4030;52.362;9.206;2023-03-01T06:03:52;3.10;52.20
7970;DHT22;4030;52.362;9.206;2023-03-01T06:16:05;2.90;51.90
7970;DHT22;4030;52.362;9.206;2023-03-01T06:18:31;2.60;51.70
7970;DHT22;4030;52.362;9.206;2023-03-01T06:20:57;2.60;51.90
7970;DHT22;4030;52.362;9.206;2023-03-01T06:23:23;3.10;52.30
7970;DHT22;4030;52.362;9.206;2023-03-01T06:25:49;2.90;52.10
7970;DHT22;4030;52.362;9.206;2023-03-01T06:28:15;2.50;51.80
7970;DHT22;4030;52.362;9.206;2023-03-01T06:30:41;2.70;51.90
7970;DHT22;4030;52.362;9.206;2023-03-01T06:33:07;2.90;51.80
7970;DHT22;4030;52.362;9.206;2023-03-01T06:38:00;2.80;51.80
7970;DHT22;4030;52.362;9.206;2023-03-01T06:45:20;2.50;51.80
7970;DHT22;4030;52.362;9.206;2023-03-01T06:47:47;2.90;52.20
7970;DHT22;4030;52.362;9.206;2023-03-01T06:50:14;2.70;52.10
7970;DHT22;4030;52.362;9.206;2023-03-01T06:52:40;3.00;52.30
7970;DHT22;4030;52.362;9.206;2023-03-01T06:55:06;2.90;52.30
7970;DHT22;4030;52.362;9.206;2023-03-01T06:57:33;2.80;52.30
7970;DHT22;4030;52.362;9.206;2023-03-01T06:59:58;2.80;52.20
7970;DHT22;4030;52.362;9.206;2023-03-01T07:02:24;3.00;52.50
7970;DHT22;4030;52.362;9.206;2023-03-01T07:04:51;2.70;52.20
7970;DHT22;4030;52.362;9.206;2023-03-01T07:07:17;2.90;52.20
7970;DHT22;4030;52.362;9.206;2023-03-01T07:09:44;2.90;52.30
7970;DHT22;4030;52.362;9.206;2023-03-01T07:12:10;2.90;52.50
7970;DHT22;4030;52.362;9.206;2023-03-01T07:14:36;2.80;52.40
7970;DHT22;4030;52.362;9.206;2023-03-01T07:17:02;2.90;52.50
7970;DHT22;4030;52.362;9.206;2023-03-01T07:24:21;3.00;52.80
7970;DHT22;4030;52.362;9.206;2023-03-01T07:26:51;3.10;53.00
7970;DHT22;4030;52.362;9.206;2023-03-01T07:29:17;3.00;53.00
7970;DHT22;4030;52.362;9.206;2023-03-01T07:31:43;3.20;53.10
7970;DHT22;4030;52.362;9.206;2023-03-01T07:34:09;3.00;52.80
7970;DHT22;4030;52.362;9.206;2023-03-01T07:36:36;3.40;53.40
7970;DHT22;4030;52.362;9.206;2023-03-01T07:39:03;3.20;53.00
7970;DHT22;4030;52.362;9.206;2023-03-01T07:41:29;3.30;53.20
7970;DHT22;4030;52.362;9.206;2023-03-01T07:43:55;3.40;53.50
7970;DHT22;4030;52.362;9.206;2023-03-01T07:51:13;3.40;53.50
7970;DHT22;4030;52.362;9.206;2023-03-01T07:53:39;3.30;53.50
7970;DHT22;4030;52.362;9.206;2023-03-01T07:56:07;3.60;53.60
7970;DHT22;4030;52.362;9.206;2023-03-01T07:58:35;3.50;53.90
7970;DHT22;4030;52.362;9.206;2023-03-01T08:01:02;3.90;54.30
7970;DHT22;4030;52.362;9.206;2023-03-01T08:03:32;3.80;54.30
7970;DHT22;4030;52.362;9.206;2023-03-01T08:06:00;3.90;54.50
7970;DHT22;4030;52.362;9.206;2023-03-01T08:08:26;3.80;54.80
7970;DHT22;4030;52.362;9.206;2023-03-01T08:10:52;4.00;55.10
7970;DHT22;4030;52.362;9.206;2023-03-01T08:13:18;4.00;55.20
7970;DHT22;4030;52.362;9.206;2023-03-01T08:15:48;4.20;55.40
7970;DHT22;4030;52.362;9.206;2023-03-01T08:18:15;4.20;55.40
7970;DHT22;4030;52.362;9.206;2023-03-01T08:37:44;4.80;56.30
7970;DHT22;4030;52.362;9.206;2023-03-01T08:40:10;4.70;56.00
7970;DHT22;4030;52.362;9.206;2023-03-01T08:47:32;5.30;56.70
7970;DHT22;4030;52.362;9.206;2023-03-01T08:50:02;5.10;56.70
7970;DHT22;4030;52.362;9.206;2023-03-01T08:52:27;5.50;57.20
7970;DHT22;4030;52.362;9.206;2023-03-01T08:54:55;5.70;57.60
7970;DHT22;4030;52.362;9.206;2023-03-01T08:57:21;5.50;57.60
7970;DHT22;4030;52.362;9.206;2023-03-01T09:02:15;5.80;58.00
7970;DHT22;4030;52.362;9.206;2023-03-01T09:04:42;5.80;58.10
7970;DHT22;4030;52.362;9.206;2023-03-01T09:07:08;5.90;58.30
7970;DHT22;4030;52.362;9.206;2023-03-01T09:09:35;6.00;58.40
7970;DHT22;4030;52.362;9.206;2023-03-01T09:12:01;6.30;58.50
7970;DHT22;4030;52.362;9.206;2023-03-01T09:16:53;6.70;58.70
7970;DHT22;4030;52.362;9.206;2023-03-01T09:24:19;7.00;58.30
7970;DHT22;4030;52.362;9.206;2023-03-01T09:29:13;7.60;58.20
7970;DHT22;4030;52.362;9.206;2023-03-01T09:31:40;7.80;58.00
7970;DHT22;4030;52.362;9.206;2023-03-01T09:34:06;8.10;57.90
7970;DHT22;4030;52.362;9.206;2023-03-01T09:36:32;8.30;57.60
7970;DHT22;4030;52.362;9.206;2023-03-01T09:38:59;8.50;57.30
7970;DHT22;4030;52.362;9.206;2023-03-01T09:44:57;9.20;56.60
7970;DHT22;4030;52.362;9.206;2023-03-01T09:47:27;9.60;56.20
7970;DHT22;4030;52.362;9.206;2023-03-01T09:50:06;9.90;55.90
7970;DHT22;4030;52.362;9.206;2023-03-01T09:52:49;10.00;54.70
7970;DHT22;4030;52.362;9.206;2023-03-01T09:55:43;10.20;54.50
7970;DHT22;4030;52.362;9.206;2023-03-01T09:58:31;10.50;54.40
7970;DHT22;4030;52.362;9.206;2023-03-01T10:01:35;10.50;54.20
7970;DHT22;4030;52.362;9.206;2023-03-01T10:04:27;10.60;54.10
7970;DHT22;4030;52.362;9.206;2023-03-01T10:09:42;10.90;54.30
7970;DHT22;4030;52.362;9.206;2023-03-01T10:12:12;10.90;54.20
7970;DHT22;4030;52.362;9.206;2023-03-01T10:17:52;11.00;54.20
7970;DHT22;4030;52.362;9.206;2023-03-01T10:20:41;11.00;54.10
7970;DHT22;4030;52.362;9.206;2023-03-01T10:28:16;11.30;54.30
7970;DHT22;4030;52.362;9.206;2023-03-01T10:30:45;11.40;55.00
7970;DHT22;4030;52.362;9.206;2023-03-01T10:33:24;11.40;55.50
7970;DHT22;4030;52.362;9.206;2023-03-01T10:35:52;11.50;55.60
7970;DHT22;4030;52.362;9.206;2023-03-01T10:38:19;11.50;55.60
7970;DHT22;4030;52.362;9.206;2023-03-01T10:43:25;11.80;55.70
7970;DHT22;4030;52.362;9.206;2023-03-01T10:45:52;12.00;55.80
7970;DHT22;4030;52.362;9.206;2023-03-01T10:48:26;12.00;55.70
7970;DHT22;4030;52.362;9.206;2023-03-01T10:53:57;12.00;55.60
7970;DHT22;4030;52.362;9.206;2023-03-01T10:59:00;12.20;55.40
7970;DHT22;4030;52.362;9.206;2023-03-01T11:01:34;12.30;55.30
7970;DHT22;4030;52.362;9.206;2023-03-01T11:06:37;12.40;55.00
7970;DHT22;4030;52.362;9.206;2023-03-01T11:09:22;12.60;55.00
7970;DHT22;4030;52.362;9.206;2023-03-01T11:11:56;12.60;54.90
7970;DHT22;4030;52.362;9.206;2023-03-01T11:14:28;12.60;54.90
7970;DHT22;4030;52.362;9.206;2023-03-01T11:17:03;12.90;55.10
7970;DHT22;4030;52.362;9.206;2023-03-01T11:19:31;13.00;55.00
7970;DHT22;4030;52.362;9.206;2023-03-01T11:22:02;12.90;54.90
7970;DHT22;4030;52.362;9.206;2023-03-01T11:24:41;13.10;54.90
7970;DHT22;4030;52.362;9.206;2023-03-01T11:27:21;13.20;54.70
7970;DHT22;4030;52.362;9.206;2023-03-01T11:29:57;13.30;54.60
7970;DHT22;4030;52.362;9.206;2023-03-01T11:32:29;13.30;54.50
7970;DHT22;4030;52.362;9.206;2023-03-01T11:35:15;13.50;54.50
7970;DHT22;4030;52.362;9.206;2023-03-01T11:40:24;13.50;54.30
7970;DHT22;4030;52.362;9.206;2023-03-01T11:43:21;13.70;54.30
7970;DHT22;4030;52.362;9.206;2023-03-01T11:49:36;13.80;54.20
7970;DHT22;4030;52.362;9.206;2023-03-01T11:52:31;14.10;54.20
7970;DHT22;4030;52.362;9.206;2023-03-01T12:08:10;14.60;54.00
7970;DHT22;4030;52.362;9.206;2023-03-01T12:20:08;15.20;53.80
7970;DHT22;4030;52.362;9.206;2023-03-01T12:26:20;15.60;53.00
7970;DHT22;4030;52.362;9.206;2023-03-01T12:40:33;16.90;49.40
7970;DHT22;4030;52.362;9.206;2023-03-01T12:46:33;17.50;47.90
7970;DHT22;4030;52.362;9.206;2023-03-01T12:49:13;17.90;47.20
7970;DHT22;4030;52.362;9.206;2023-03-01T12:51:47;18.10;46.60
7970;DHT22;4030;52.362;9.206;2023-03-01T12:54:28;18.40;45.40
7970;DHT22;4030;52.362;9.206;2023-03-01T12:56:58;18.70;45.10
7970;DHT22;4030;52.362;9.206;2023-03-01T12:59:42;19.00;44.30
7970;DHT22;4030;52.362;9.206;2023-03-01T13:08:13;19.30;42.90
7970;DHT22;4030;52.362;9.206;2023-03-01T13:10:48;19.30;42.90
7970;DHT22;4030;52.362;9.206;2023-03-01T13:15:48;18.90;43.00
7970;DHT22;4030;52.362;9.206;2023-03-01T13:31:06;18.20;44.50
7970;DHT22;4030;52.362;9.206;2023-03-01T13:36:00;18.30;45.10
7970;DHT22;4030;52.362;9.206;2023-03-01T13:38:46;18.30;45.00
7970;DHT22;4030;52.362;9.206;2023-03-01T13:49:54;18.50;44.00
7970;DHT22;4030;52.362;9.206;2023-03-01T13:57:41;18.50;43.40
7970;DHT22;4030;52.362;9.206;2023-03-01T14:00:44;18.40;43.20
7970;DHT22;4030;52.362;9.206;2023-03-01T14:03:19;18.40;43.00
7970;DHT22;4030;52.362;9.206;2023-03-01T14:06:03;18.60;42.90
7970;DHT22;4030;52.362;9.206;2023-03-01T14:08:34;18.80;42.80
7970;DHT22;4030;52.362;9.206;2023-03-01T14:19:40;19.30;42.20
7970;DHT22;4030;52.362;9.206;2023-03-01T14:22:24;19.40;41.80
7970;DHT22;4030;52.362;9.206;2023-03-01T14:24:59;19.40;41.50
7970;DHT22;4030;52.362;9.206;2023-03-01T14:27:30;19.50;41.20
7970;DHT22;4030;52.362;9.206;2023-03-01T14:30:50;19.70;40.20
7970;DHT22;4030;52.362;9.206;2023-03-01T14:33:02;19.90;39.30
7970;DHT22;4030;52.362;9.206;2023-03-01T14:35:35;20.10;38.50
7970;DHT22;4030;52.362;9.206;2023-03-01T14:38:02;20.20;37.80
7970;DHT22;4030;52.362;9.206;2023-03-01T14:40:34;20.40;37.30
7970;DHT22;4030;52.362;9.206;2023-03-01T14:43:03;20.50;37.00
7970;DHT22;4030;52.362;9.206;2023-03-01T14:45:35;20.70;35.90
7970;DHT22;4030;52.362;9.206;2023-03-01T14:48:03;21.00;34.50
7970;DHT22;4030;52.362;9.206;2023-03-01T14:50:32;21.70;32.00
7970;DHT22;4030;52.362;9.206;2023-03-01T14:53:01;21.80;32.30
7970;DHT22;4030;52.362;9.206;2023-03-01T14:55:35;23.30;29.20
7970;DHT22;4030;52.362;9.206;2023-03-01T14:58:06;23.30;29.40
7970;DHT22;4030;52.362;9.206;2023-03-01T15:00:37;23.90;28.20
7970;DHT22;4030;52.362;9.206;2023-03-01T15:03:11;24.40;27.50
7970;DHT22;4030;52.362;9.206;2023-03-01T15:05:40;24.00;27.30
7970;DHT22;4030;52.362;9.206;2023-03-01T15:08:07;23.20;27.80
7970;DHT22;4030;52.362;9.206;2023-03-01T15:11:03;22.50;28.40
7970;DHT22;4030;52.362;9.206;2023-03-01T15:13:38;21.90;28.70
7970;DHT22;4030;52.362;9.206;2023-03-01T15:16:15;21.40;29.60
7970;DHT22;4030;52.362;9.206;2023-03-01T15:18:48;21.00;29.70
7970;DHT22;4030;52.362;9.206;2023-03-01T15:21:18;20.60;29.80
7970;DHT22;4030;52.362;9.206;2023-03-01T15:23:49;20.40;30.00
7970;DHT22;4030;52.362;9.206;2023-03-01T15:26:41;20.10;29.90
7970;DHT22;4030;52.362;9.206;2023-03-01T15:29:16;20.00;30.10
7970;DHT22;4030;52.362;9.206;2023-03-01T15:31:43;20.50;30.00
7970;DHT22;4030;52.362;9.206;2023-03-01T15:34:30;21.60;28.70
7970;DHT22;4030;52.362;9.206;2023-03-01T15:37:00;23.70;26.00
7970;DHT22;4030;52.362;9.206;2023-03-01T15:39:41;23.70;26.50
7970;DHT22;4030;52.362;9.206;2023-03-01T15:47:41;25.80;24.40
7970;DHT22;4030;52.362;9.206;2023-03-01T15:50:25;26.20;23.80
7970;DHT22;4030;52.362;9.206;2023-03-01T15:53:05;26.10;23.60
7970;DHT22;4030;52.362;9.206;2023-03-01T15:55:32;25.70;23.90
7970;DHT22;4030;52.362;9.206;2023-03-01T15:57:59;25.20;24.40
7970;DHT22;4030;52.362;9.206;2023-03-01T16:00:27;24.70;24.60
7970;DHT22;4030;52.362;9.206;2023-03-01T16:02:53;23.80;24.80
7970;DHT22;4030;52.362;9.206;2023-03-01T16:05:28;22.80;25.60
7970;DHT22;4030;52.362;9.206;2023-03-01T16:07:58;21.60;26.70
7970;DHT22;4030;52.362;9.206;2023-03-01T16:10:24;20.60;27.80
7970;DHT22;4030;52.362;9.206;2023-03-01T16:12:51;19.70;28.80
7970;DHT22;4030;52.362;9.206;2023-03-01T16:15:23;18.90;29.50
7970;DHT22;4030;52.362;9.206;2023-03-01T16:22:45;17.40;31.70
7970;DHT22;4030;52.362;9.206;2023-03-01T16:25:14;17.10;32.20
7970;DHT22;4030;52.362;9.206;2023-03-01T16:27:44;16.80;32.80
7970;DHT22;4030;52.362;9.206;2023-03-01T16:30:12;16.50;33.40
7970;DHT22;4030;52.362;9.206;2023-03-01T16:32:40;16.20;34.00
7970;DHT22;4030;52.362;9.206;2023-03-01T16:35:08;16.00;34.30
7970;DHT22;4030;52.362;9.206;2023-03-01T16:37:36;15.80;34.60
7970;DHT22;4030;52.362;9.206;2023-03-01T16:40:03;15.60;34.80
7970;DHT22;4030;52.362;9.206;2023-03-01T16:42:36;15.40;34.60
7970;DHT22;4030;52.362;9.206;2023-03-01T16:45:03;15.30;34.60
7970;DHT22;4030;52.362;9.206;2023-03-01T16:47:29;15.20;34.90
7970;DHT22;4030;52.362;9.206;2023-03-01T16:52:21;14.90;35.00
7970;DHT22;4030;52.362;9.206;2023-03-01T17:02:08;14.40;36.00
7970;DHT22;4030;52.362;9.206;2023-03-01T17:04:36;14.20;36.30
7970;DHT22;4030;52.362;9.206;2023-03-01T17:07:02;14.20;36.60
7970;DHT22;4030;52.362;9.206;2023-03-01T17:09:28;14.00;36.70
7970;DHT22;4030;52.362;9.206;2023-03-01T17:11:54;13.90;36.90
7970;DHT22;4030;52.362;9.206;2023-03-01T17:21:43;13.40;37.20
7970;DHT22;4030;52.362;9.206;2023-03-01T17:24:09;13.20;37.30
7970;DHT22;4030;52.362;9.206;2023-03-01T17:26:35;13.30;37.60
7970;DHT22;4030;52.362;9.206;2023-03-01T17:29:01;13.10;37.60
7970;DHT22;4030;52.362;9.206;2023-03-01T17:31:29;13.10;37.70
7970;DHT22;4030;52.362;9.206;2023-03-01T17:33:58;13.00;38.00
7970;DHT22;4030;52.362;9.206;2023-03-01T17:36:24;12.90;38.10
7970;DHT22;4030;52.362;9.206;2023-03-01T17:38:50;12.90;38.30
7970;DHT22;4030;52.362;9.206;2023-03-01T17:41:17;12.70;38.40
7970;DHT22;4030;52.362;9.206;2023-03-01T17:43:46;12.70;38.50
7970;DHT22;4030;52.362;9.206;2023-03-01T17:46:12;12.60;38.70
7970;DHT22;4030;52.362;9.206;2023-03-01T17:48:38;12.60;38.90
7970;DHT22;4030;52.362;9.206;2023-03-01T17:51:08;12.50;38.80
7970;DHT22;4030;52.362;9.206;2023-03-01T17:53:36;12.40;38.80
7970;DHT22;4030;52.362;9.206;2023-03-01T17:56:04;12.30;38.90
7970;DHT22;4030;52.362;9.206;2023-03-01T17:58:31;12.20;39.00
7970;DHT22;4030;52.362;9.206;2023-03-01T18:03:33;12.00;39.20
7970;DHT22;4030;52.362;9.206;2023-03-01T18:05:59;12.00;39.20
7970;DHT22;4030;52.362;9.206;2023-03-01T18:10:57;11.80;41.60
7970;DHT22;4030;52.362;9.206;2023-03-01T18:28:03;11.50;42.30
7970;DHT22;4030;52.362;9.206;2023-03-01T18:30:29;11.40;42.10
7970;DHT22;4030;52.362;9.206;2023-03-01T18:35:22;11.30;42.00
7970;DHT22;4030;52.362;9.206;2023-03-01T18:37:48;11.20;41.90
7970;DHT22;4030;52.362;9.206;2023-03-01T18:40:14;11.20;41.90
7970;DHT22;4030;52.362;9.206;2023-03-01T18:45:06;11.10;41.70
7970;DHT22;4030;52.362;9.206;2023-03-01T18:47:32;11.00;41.60
7970;DHT22;4030;52.362;9.206;2023-03-01T18:49:58;11.00;41.60
7970;DHT22;4030;52.362;9.206;2023-03-01T18:52:23;10.80;41.50
7970;DHT22;4030;52.362;9.206;2023-03-01T18:54:49;10.80;41.50
7970;DHT22;4030;52.362;9.206;2023-03-01T19:04:34;10.60;41.60
7970;DHT22;4030;52.362;9.206;2023-03-01T19:07:00;10.50;41.50
7970;DHT22;4030;52.362;9.206;2023-03-01T19:09:26;10.60;41.70
7970;DHT22;4030;52.362;9.206;2023-03-01T19:11:53;10.40;41.60
7970;DHT22;4030;52.362;9.206;2023-03-01T19:14:23;10.40;41.60
7970;DHT22;4030;52.362;9.206;2023-03-01T19:19:14;10.30;41.60
7970;DHT22;4030;52.362;9.206;2023-03-01T19:21:40;10.10;41.50
7970;DHT22;4030;52.362;9.206;2023-03-01T19:24:06;10.10;41.40
7970;DHT22;4030;52.362;9.206;2023-03-01T19:28:58;10.20;41.60
7970;DHT22;4030;52.362;9.206;2023-03-01T19:31:27;10.10;41.70
7970;DHT22;4030;52.362;9.206;2023-03-01T19:33:54;10.10;41.70
7970;DHT22;4030;52.362;9.206;2023-03-01T19:41:23;9.90;42.60
7970;DHT22;4030;52.362;9.206;2023-03-01T19:43:49;9.70;42.50
7970;DHT22;4030;52.362;9.206;2023-03-01T19:46:14;9.90;42.70
7970;DHT22;4030;52.362;9.206;2023-03-01T19:53:36;9.70;42.80
7970;DHT22;4030;52.362;9.206;2023-03-01T19:56:03;9.70;42.80
7970;DHT22;4030;52.362;9.206;2023-03-01T19:58:30;9.60;42.80
7970;DHT22;4030;52.362;9.206;2023-03-01T20:03:29;9.60;43.00
7970;DHT22;4030;52.362;9.206;2023-03-01T20:05:57;9.50;42.90
7970;DHT22;4030;52.362;9.206;2023-03-01T20:08:24;9.60;43.20
7970;DHT22;4030;52.362;9.206;2023-03-01T20:10:50;9.40;43.10
7970;DHT22;4030;52.362;9.206;2023-03-01T20:13:16;9.40;43.20
7970;DHT22;4030;52.362;9.206;2023-03-01T20:18:11;9.30;43.20
7970;DHT22;4030;52.362;9.206;2023-03-01T20:20:39;9.30;43.30
7970;DHT22;4030;52.362;9.206;2023-03-01T20:23:05;9.20;43.30
7970;DHT22;4030;52.362;9.206;2023-03-01T20:25:31;9.10;43.30
7970;DHT22;4030;52.362;9.206;2023-03-01T20:30:23;9.20;43.50
7970;DHT22;4030;52.362;9.206;2023-03-01T20:32:48;9.10;43.50
7970;DHT22;4030;52.362;9.206;2023-03-01T20:35:14;9.00;43.50
7970;DHT22;4030;52.362;9.206;2023-03-01T20:40:06;9.00;43.50
7970;DHT22;4030;52.362;9.206;2023-03-01T20:42:33;9.00;43.70
7970;DHT22;4030;52.362;9.206;2023-03-01T20:47:25;8.80;43.60
7970;DHT22;4030;52.362;9.206;2023-03-01T20:52:17;8.70;43.70
7970;DHT22;4030;52.362;9.206;2023-03-01T20:54:43;8.70;43.80
7970;DHT22;4030;52.362;9.206;2023-03-01T20:57:09;8.70;43.90
7970;DHT22;4030;52.362;9.206;2023-03-01T21:02:02;8.60;43.80
7970;DHT22;4030;52.362;9.206;2023-03-01T21:06:54;8.50;44.00
7970;DHT22;4030;52.362;9.206;2023-03-01T21:09:20;8.40;44.00
7970;DHT22;4030;52.362;9.206;2023-03-01T21:11:48;8.40;44.00
7970;DHT22;4030;52.362;9.206;2023-03-01T21:16:41;8.40;44.00
7970;DHT22;4030;52.362;9.206;2023-03-01T21:21:36;8.30;44.20
7970;DHT22;4030;52.362;9.206;2023-03-01T21:24:01;8.20;44.10
7970;DHT22;4030;52.362;9.206;2023-03-01T21:28:58;8.20;44.10
7970;DHT22;4030;52.362;9.206;2023-03-01T21:31:28;8.20;44.20
7970;DHT22;4030;52.362;9.206;2023-03-01T21:34:00;8.10;44.20
7970;DHT22;4030;52.362;9.206;2023-03-01T21:36:29;8.10;44.30
7970;DHT22;4030;52.362;9.206;2023-03-01T21:38:57;8.00;44.20
7970;DHT22;4030;52.362;9.206;2023-03-01T21:41:29;8.10;44.30
7970;DHT22;4030;52.362;9.206;2023-03-01T21:43:57;8.00;44.30
7970;DHT22;4030;52.362;9.206;2023-03-01T21:46:29;8.10;44.30
7970;DHT22;4030;52.362;9.206;2023-03-01T21:51:24;8.00;44.30
7970;DHT22;4030;52.362;9.206;2023-03-01T21:53:51;7.80;44.20
7970;DHT22;4030;52.362;9.206;2023-03-01T21:56:19;7.90;44.30
7970;DHT22;4030;52.362;9.206;2023-03-01T21:58:48;8.10;44.50
7970;DHT22;4030;52.362;9.206;2023-03-01T22:01:16;7.90;44.30
7970;DHT22;4030;52.362;9.206;2023-03-01T22:03:44;7.90;44.40
7970;DHT22;4030;52.362;9.206;2023-03-01T22:08:49;7.80;44.50
7970;DHT22;4030;52.362;9.206;2023-03-01T22:11:19;7.80;44.60
7970;DHT22;4030;52.362;9.206;2023-03-01T22:13:47;7.80;44.60
7970;DHT22;4030;52.362;9.206;2023-03-01T22:16:19;7.50;44.40
7970;DHT22;4030;52.362;9.206;2023-03-01T22:18:47;7.60;44.50
7970;DHT22;4030;52.362;9.206;2023-03-01T22:21:14;8.00;44.90
7970;DHT22;4030;52.362;9.206;2023-03-01T22:23:40;7.60;44.70
7970;DHT22;4030;52.362;9.206;2023-03-01T22:26:07;7.60;44.60